sensor_id;sensor_type;location;lat;lon;timestamp;pressure;altitude;pressure_sealevel;temperature;humidity
44453;BME280;30155;52.164;21.236;2023-02-28T00:04:00;102057.50;;;-4.32;68.91
44453;BME280;30155;52.164;21.236;2023-02-28T00:08:53;102061.82;;;-4.43;69.14
44453;BME280;30155;52.164;21.236;2023-02-28T00:13:46;102066.06;;;-4.53;69.10
44453;BME280;30155;52.164;21.236;2023-02-28T00:18:39;102068.30;;;-4.65;69.55
44453;BME280;30155;52.164;21.236;2023-02-28T00:23:33;102069.37;;;-4.68;69.58
44453;BME280;30155;52.164;21.236;2023-02-28T00:28:26;102072.52;;;-4.67;69.36
44453;BME280;30155;52.164;21.236;2023-02-28T00:33:19;102077.52;;;-4.69;69.52
44453;BME280;30155;52.164;21.236;2023-02-28T00:38:15;102076.52;;;-4.69;69.78
44453;BME280;30155;52.164;21.236;2023-02-28T00:43:08;102073.89;;;-4.73;69.74
44453;BME280;30155;52.164;21.236;2023-02-28T00:48:01;102074.54;;;-4.79;69.75
44453;BME280;30155;52.164;21.236;2023-02-28T00:52:53;102075.02;;;-4.87;69.94
44453;BME280;30155;52.164;21.236;2023-02-28T00:57:46;102077.48;;;-5.00;69.78
44453;BME280;30155;52.164;21.236;2023-02-28T01:02:39;102074.10;;;-5.10;70.01
44453;BME280;30155;52.164;21.236;2023-02-28T01:07:31;102074.73;;;-5.19;69.97
44453;BME280;30155;52.164;21.236;2023-02-28T01:12:24;102068.95;;;-5.27;70.11
44453;BME280;30155;52.164;21.236;2023-02-28T01:17:19;102066.55;;;-5.29;70.27
44453;BME280;30155;52.164;21.236;2023-02-28T01:22:12;102067.65;;;-5.25;70.47
44453;BME280;30155;52.164;21.236;2023-02-28T01:27:06;102071.13;;;-5.27;69.91
44453;BME280;30155;52.164;21.236;2023-02-28T01:32:01;102066.72;;;-5.32;70.16
44453;BME280;30155;52.164;21.236;2023-02-28T01:36:53;102067.74;;;-5.39;70.16
44453;BME280;30155;52.164;21.236;2023-02-28T01:41:46;102068.74;;;-5.51;70.40
44453;BME280;30155;52.164;21.236;2023-02-28T01:46:39;102079.10;;;-5.60;70.71
44453;BME280;30155;52.164;21.236;2023-02-28T01:51:44;102083.50;;;-5.66;70.56
44453;BME280;30155;52.164;21.236;2023-02-28T01:56:50;102080.46;;;-5.71;70.55
44453;BME280;30155;52.164;21.236;2023-02-28T02:01:45;102082.06;;;-5.72;70.61
44453;BME280;30155;52.164;21.236;2023-02-28T02:06:43;102080.79;;;-5.71;70.63
44453;BME280;30155;52.164;21.236;2023-02-28T02:11:36;102072.77;;;-5.72;70.85
44453;BME280;30155;52.164;21.236;2023-02-28T02:21:55;102070.67;;;-5.73;71.11
44453;BME280;30155;52.164;21.236;2023-02-28T02:27:20;102074.39;;;-5.80;70.93
44453;BME280;30155;52.164;21.236;2023-02-28T02:37:38;102078.98;;;-5.96;71.05
44453;BME280;30155;52.164;21.236;2023-02-28T02:42:41;102083.09;;;-6.00;71.38
44453;BME280;30155;52.164;21.236;2023-02-28T02:47:35;102085.89;;;-5.99;71.37
44453;BME280;30155;52.164;21.236;2023-02-28T02:52:40;102085.52;;;-5.98;71.49
44453;BME280;30155;52.164;21.236;2023-02-28T02:57:48;102089.89;;;-5.95;71.22
44453;BME280;30155;52.164;21.236;2023-02-28T03:02:44;102090.65;;;-5.97;71.24
44453;BME280;30155;52.164;21.236;2023-02-28T03:07:38;102094.01;;;-6.05;70.89
44453;BME280;30155;52.164;21.236;2023-02-28T03:12:49;102091.39;;;-6.16;71.05
44453;BME280;30155;52.164;21.236;2023-02-28T03:18:31;102093.41;;;-6.21;71.18
44453;BME280;30155;52.164;21.236;2023-02-28T03:28:11;102096.54;;;-6.35;71.20
44453;BME280;30155;52.164;21.236;2023-02-28T03:33:11;102095.53;;;-6.39;71.36
44453;BME280;30155;52.164;21.236;2023-02-28T03:38:13;102100.92;;;-6.44;71.42
44453;BME280;30155;52.164;21.236;2023-02-28T03:43:12;102103.48;;;-6.45;71.38
44453;BME280;30155;52.164;21.236;2023-02-28T03:48:25;102107.11;;;-6.40;71.82
44453;BME280;30155;52.164;21.236;2023-02-28T03:53:33;102099.89;;;-6.32;71.88
44453;BME280;30155;52.164;21.236;2023-02-28T03:58:35;102105.96;;;-6.27;71.57
44453;BME280;30155;52.164;21.236;2023-02-28T04:03:37;102109.11;;;-6.24;71.45
44453;BME280;30155;52.164;21.236;2023-02-28T04:08:31;102107.98;;;-6.22;71.25
44453;BME280;30155;52.164;21.236;2023-02-28T04:13:23;102105.19;;;-6.23;71.04
44453;BME280;30155;52.164;21.236;2023-02-28T04:18:16;102108.42;;;-6.21;71.32
44453;BME280;30155;52.164;21.236;2023-02-28T04:23:09;102108.58;;;-6.16;71.42
44453;BME280;30155;52.164;21.236;2023-02-28T04:28:01;102111.20;;;-6.12;71.38
44453;BME280;30155;52.164;21.236;2023-02-28T04:32:54;102107.11;;;-6.13;71.19
44453;BME280;30155;52.164;21.236;2023-02-28T04:37:47;102112.00;;;-6.15;70.96
44453;BME280;30155;52.164;21.236;2023-02-28T04:42:39;102114.71;;;-6.21;70.97
44453;BME280;30155;52.164;21.236;2023-02-28T04:47:32;102113.66;;;-6.21;71.44
44453;BME280;30155;52.164;21.236;2023-02-28T04:52:32;102112.36;;;-6.21;71.30
44453;BME280;30155;52.164;21.236;2023-02-28T04:57:25;102110.91;;;-6.26;70.93
44453;BME280;30155;52.164;21.236;2023-02-28T05:02:18;102111.55;;;-6.28;71.21
44453;BME280;30155;52.164;21.236;2023-02-28T05:07:12;102121.77;;;-6.24;71.43
44453;BME280;30155;52.164;21.236;2023-02-28T05:12:05;102130.49;;;-6.20;71.34
44453;BME280;30155;52.164;21.236;2023-02-28T05:16:58;102135.50;;;-6.24;70.90
44453;BME280;30155;52.164;21.236;2023-02-28T05:21:55;102139.36;;;-6.28;70.83
44453;BME280;30155;52.164;21.236;2023-02-28T05:26:49;102145.21;;;-6.29;70.90
44453;BME280;30155;52.164;21.236;2023-02-28T05:31:44;102149.63;;;-6.29;70.59
44453;BME280;30155;52.164;21.236;2023-02-28T05:36:38;102157.31;;;-6.28;70.71
44453;BME280;30155;52.164;21.236;2023-02-28T05:41:31;102159.48;;;-6.28;70.67
44453;BME280;30155;52.164;21.236;2023-02-28T05:46:26;102161.63;;;-6.29;70.67
44453;BME280;30155;52.164;21.236;2023-02-28T05:51:19;102162.91;;;-6.26;70.84
44453;BME280;30155;52.164;21.236;2023-02-28T05:56:13;102172.29;;;-6.21;70.84
44453;BME280;30155;52.164;21.236;2023-02-28T06:01:31;102172.44;;;-6.14;70.98
44453;BME280;30155;52.164;21.236;2023-02-28T06:06:28;102176.56;;;-6.08;70.79
44453;BME280;30155;52.164;21.236;2023-02-28T06:11:22;102181.11;;;-6.01;71.14
44453;BME280;30155;52.164;21.236;2023-02-28T06:16:19;102182.85;;;-5.91;71.37
44453;BME280;30155;52.164;21.236;2023-02-28T06:21:12;102186.27;;;-5.78;71.38
44453;BME280;30155;52.164;21.236;2023-02-28T06:26:06;102182.55;;;-5.64;71.61
44453;BME280;30155;52.164;21.236;2023-02-28T06:30:59;102183.49;;;-5.51;71.50
44453;BME280;30155;52.164;21.236;2023-02-28T06:35:52;102178.61;;;-5.36;71.67
44453;BME280;30155;52.164;21.236;2023-02-28T06:40:53;102179.02;;;-5.16;71.86
44453;BME280;30155;52.164;21.236;2023-02-28T06:45:46;102170.45;;;-5.00;71.82
44453;BME280;30155;52.164;21.236;2023-02-28T06:50:39;102166.64;;;-4.79;72.17
44453;BME280;30155;52.164;21.236;2023-02-28T06:55:32;102161.68;;;-4.63;72.00
44453;BME280;30155;52.164;21.236;2023-02-28T07:00:24;102160.21;;;-4.44;72.29
44453;BME280;30155;52.164;21.236;2023-02-28T07:05:17;102156.00;;;-4.26;72.29
44453;BME280;30155;52.164;21.236;2023-02-28T07:10:11;102153.71;;;-4.07;72.18
44453;BME280;30155;52.164;21.236;2023-02-28T07:15:05;102142.31;;;-3.55;71.91
44453;BME280;30155;52.164;21.236;2023-02-28T07:19:58;102144.23;;;-3.37;71.73
44453;BME280;30155;52.164;21.236;2023-02-28T07:24:51;102148.08;;;-3.44;71.95
44453;BME280;30155;52.164;21.236;2023-02-28T07:29:44;102149.17;;;-3.47;72.25
44453;BME280;30155;52.164;21.236;2023-02-28T07:34:37;102146.72;;;-3.03;72.28
44453;BME280;30155;52.164;21.236;2023-02-28T07:39:29;102144.03;;;-2.46;71.59
44453;BME280;30155;52.164;21.236;2023-02-28T07:44:22;102144.31;;;-2.65;71.71
44453;BME280;30155;52.164;21.236;2023-02-28T07:49:14;102138.95;;;-2.64;71.73
44453;BME280;30155;52.164;21.236;2023-02-28T07:54:07;102140.89;;;-2.36;71.42
44453;BME280;30155;52.164;21.236;2023-02-28T07:59:00;102147.13;;;-1.99;70.91
44453;BME280;30155;52.164;21.236;2023-02-28T08:03:53;102138.95;;;-0.55;68.73
44453;BME280;30155;52.164;21.236;2023-02-28T08:08:46;102128.40;;;1.11;66.68
44453;BME280;30155;52.164;21.236;2023-02-28T08:13:39;102134.44;;;2.14;65.13
44453;BME280;30155;52.164;21.236;2023-02-28T08:18:33;102132.79;;;2.29;64.18
44453;BME280;30155;52.164;21.236;2023-02-28T08:23:26;102129.25;;;2.59;63.39
44453;BME280;30155;52.164;21.236;2023-02-28T08:28:19;102113.00;;;6.20;59.47
44453;BME280;30155;52.164;21.236;2023-02-28T08:33:12;102104.69;;;7.83;56.95
44453;BME280;30155;52.164;21.236;2023-02-28T08:38:05;102102.83;;;8.54;56.54
44453;BME280;30155;52.164;21.236;2023-02-28T08:42:57;102106.96;;;7.58;56.09
44453;BME280;30155;52.164;21.236;2023-02-28T08:47:50;102110.17;;;6.03;56.91
44453;BME280;30155;52.164;21.236;2023-02-28T08:52:44;102117.96;;;5.04;57.31
44453;BME280;30155;52.164;21.236;2023-02-28T08:57:36;102123.90;;;5.39;56.60
44453;BME280;30155;52.164;21.236;2023-02-28T09:02:33;102121.90;;;5.17;56.27
44453;BME280;30155;52.164;21.236;2023-02-28T09:07:26;102124.94;;;4.77;56.51
44453;BME280;30155;52.164;21.236;2023-02-28T09:12:20;102125.81;;;5.22;55.85
44453;BME280;30155;52.164;21.236;2023-02-28T09:17:13;102130.17;;;4.98;55.62
44453;BME280;30155;52.164;21.236;2023-02-28T09:22:06;102127.89;;;4.69;55.09
44453;BME280;30155;52.164;21.236;2023-02-28T09:27:00;102133.87;;;5.05;54.38
44453;BME280;30155;52.164;21.236;2023-02-28T09:31:56;102128.72;;;5.42;53.49
44453;BME280;30155;52.164;21.236;2023-02-28T09:36:50;102132.27;;;4.87;54.16
44453;BME280;30155;52.164;21.236;2023-02-28T09:41:48;102129.86;;;6.18;53.62
44453;BME280;30155;52.164;21.236;2023-02-28T09:46:47;102124.95;;;7.41;52.07
44453;BME280;30155;52.164;21.236;2023-02-28T09:51:55;102116.30;;;8.44;50.82
44453;BME280;30155;52.164;21.236;2023-02-28T09:56:54;102109.11;;;8.52;49.47
44453;BME280;30155;52.164;21.236;2023-02-28T10:06:49;102113.41;;;8.13;49.07
44453;BME280;30155;52.164;21.236;2023-02-28T10:11:43;102121.40;;;7.09;50.65
44453;BME280;30155;52.164;21.236;2023-02-28T10:16:52;102124.41;;;7.31;50.04
44453;BME280;30155;52.164;21.236;2023-02-28T10:21:59;102120.66;;;8.73;48.76
44453;BME280;30155;52.164;21.236;2023-02-28T10:27:21;102115.34;;;8.06;49.03
44453;BME280;30155;52.164;21.236;2023-02-28T10:32:17;102114.48;;;8.31;48.95
44453;BME280;30155;52.164;21.236;2023-02-28T10:37:12;102115.81;;;9.01;48.22
44453;BME280;30155;52.164;21.236;2023-02-28T10:42:23;102116.77;;;9.28;47.84
44453;BME280;30155;52.164;21.236;2023-02-28T10:47:19;102114.05;;;8.84;48.50
44453;BME280;30155;52.164;21.236;2023-02-28T10:52:12;102112.16;;;8.23;47.60
44453;BME280;30155;52.164;21.236;2023-02-28T10:57:09;102108.94;;;8.03;47.46
44453;BME280;30155;52.164;21.236;2023-02-28T11:02:33;102104.73;;;8.01;47.51
44453;BME280;30155;52.164;21.236;2023-02-28T11:07:28;102101.79;;;8.15;47.34
44453;BME280;30155;52.164;21.236;2023-02-28T11:12:38;102093.41;;;8.79;46.87
44453;BME280;30155;52.164;21.236;2023-02-28T11:17:42;102076.88;;;9.71;46.27
44453;BME280;30155;52.164;21.236;2023-02-28T11:22:37;102070.08;;;10.21;45.58
44453;BME280;30155;52.164;21.236;2023-02-28T11:32:29;102054.02;;;12.49;43.89
44453;BME280;30155;52.164;21.236;2023-02-28T11:37:22;102044.41;;;13.19;42.75
44453;BME280;30155;52.164;21.236;2023-02-28T11:47:49;102034.36;;;14.03;41.88
44453;BME280;30155;52.164;21.236;2023-02-28T12:03:14;102006.02;;;14.85;40.86
44453;BME280;30155;52.164;21.236;2023-02-28T12:08:36;102006.50;;;14.59;40.94
44453;BME280;30155;52.164;21.236;2023-02-28T12:13:39;102004.05;;;13.41;42.06
44453;BME280;30155;52.164;21.236;2023-02-28T12:29:30;102004.10;;;9.65;43.54
44453;BME280;30155;52.164;21.236;2023-02-28T12:34:49;102001.63;;;8.79;44.58
44453;BME280;30155;52.164;21.236;2023-02-28T12:39:45;101995.60;;;8.23;45.34
44453;BME280;30155;52.164;21.236;2023-02-28T12:44:48;101994.38;;;7.80;45.22
44453;BME280;30155;52.164;21.236;2023-02-28T12:50:09;101991.71;;;7.56;46.19
44453;BME280;30155;52.164;21.236;2023-02-28T12:55:20;101986.98;;;7.58;46.68
44453;BME280;30155;52.164;21.236;2023-02-28T13:00:21;101984.27;;;7.59;46.26
44453;BME280;30155;52.164;21.236;2023-02-28T13:10:59;101979.33;;;7.54;46.63
44453;BME280;30155;52.164;21.236;2023-02-28T13:21:00;101959.46;;;7.26;46.72
44453;BME280;30155;52.164;21.236;2023-02-28T13:25:53;101955.54;;;7.19;46.71
44453;BME280;30155;52.164;21.236;2023-02-28T13:35:47;101952.27;;;6.90;47.13
44453;BME280;30155;52.164;21.236;2023-02-28T13:40:39;101949.30;;;6.95;47.71
44453;BME280;30155;52.164;21.236;2023-02-28T13:45:33;101946.12;;;6.84;46.49
44453;BME280;30155;52.164;21.236;2023-02-28T13:50:35;101941.91;;;6.69;47.09
44453;BME280;30155;52.164;21.236;2023-02-28T13:55:37;101931.86;;;6.52;47.21
44453;BME280;30155;52.164;21.236;2023-02-28T14:05:44;101925.27;;;5.93;47.13
44453;BME280;30155;52.164;21.236;2023-02-28T14:10:49;101915.15;;;5.69;47.40
44453;BME280;30155;52.164;21.236;2023-02-28T14:20:36;101910.88;;;5.33;47.53
44453;BME280;30155;52.164;21.236;2023-02-28T14:31:01;101898.52;;;5.06;47.96
44453;BME280;30155;52.164;21.236;2023-02-28T14:41:06;101894.78;;;4.75;48.42
44453;BME280;30155;52.164;21.236;2023-02-28T14:46:05;101897.45;;;4.59;49.41
44453;BME280;30155;52.164;21.236;2023-02-28T14:51:00;101895.66;;;4.43;49.76
44453;BME280;30155;52.164;21.236;2023-02-28T14:55:54;101892.19;;;4.23;49.97
44453;BME280;30155;52.164;21.236;2023-02-28T15:00:49;101888.17;;;4.02;50.49
44453;BME280;30155;52.164;21.236;2023-02-28T15:05:51;101888.89;;;3.73;50.89
44453;BME280;30155;52.164;21.236;2023-02-28T15:10:51;101889.42;;;3.43;51.19
44453;BME280;30155;52.164;21.236;2023-02-28T15:15:52;101881.55;;;3.20;51.77
44453;BME280;30155;52.164;21.236;2023-02-28T15:20:56;101887.48;;;2.95;52.56
44453;BME280;30155;52.164;21.236;2023-02-28T15:25:52;101889.13;;;2.71;53.07
44453;BME280;30155;52.164;21.236;2023-02-28T15:30:58;101896.90;;;2.47;53.06
44453;BME280;30155;52.164;21.236;2023-02-28T15:36:19;101900.73;;;2.23;53.44
44453;BME280;30155;52.164;21.236;2023-02-28T15:41:26;101895.17;;;1.95;54.03
44453;BME280;30155;52.164;21.236;2023-02-28T15:46:19;101896.77;;;1.72;54.25
44453;BME280;30155;52.164;21.236;2023-02-28T15:51:21;101897.75;;;1.52;54.36
44453;BME280;30155;52.164;21.236;2023-02-28T15:56:31;101900.86;;;1.33;54.75
44453;BME280;30155;52.164;21.236;2023-02-28T16:07:04;101905.06;;;0.77;55.93
44453;BME280;30155;52.164;21.236;2023-02-28T16:12:02;101906.83;;;0.55;56.05
44453;BME280;30155;52.164;21.236;2023-02-28T16:17:02;101907.98;;;0.37;56.19
44453;BME280;30155;52.164;21.236;2023-02-28T16:21:55;101914.36;;;0.20;56.78
44453;BME280;30155;52.164;21.236;2023-02-28T16:26:50;101918.20;;;-0.01;56.83
44453;BME280;30155;52.164;21.236;2023-02-28T16:31:44;101921.30;;;-0.22;57.32
44453;BME280;30155;52.164;21.236;2023-02-28T16:36:36;101920.63;;;-0.39;57.57
44453;BME280;30155;52.164;21.236;2023-02-28T16:41:29;101924.89;;;-0.54;57.78
44453;BME280;30155;52.164;21.236;2023-02-28T16:46:23;101919.86;;;-0.70;58.25
44453;BME280;30155;52.164;21.236;2023-02-28T16:51:17;101917.39;;;-0.81;58.57
44453;BME280;30155;52.164;21.236;2023-02-28T16:56:17;101925.48;;;-0.91;58.96
44453;BME280;30155;52.164;21.236;2023-02-28T17:01:11;101929.66;;;-1.04;58.97
44453;BME280;30155;52.164;21.236;2023-02-28T17:06:04;101934.79;;;-1.14;59.47
44453;BME280;30155;52.164;21.236;2023-02-28T17:11:00;101939.66;;;-1.21;59.87
44453;BME280;30155;52.164;21.236;2023-02-28T17:15:54;101947.55;;;-1.30;60.11
44453;BME280;30155;52.164;21.236;2023-02-28T17:20:48;101955.27;;;-1.41;60.20
44453;BME280;30155;52.164;21.236;2023-02-28T17:25:41;101956.77;;;-1.52;60.45
44453;BME280;30155;52.164;21.236;2023-02-28T17:30:48;101956.43;;;-1.62;60.70
44453;BME280;30155;52.164;21.236;2023-02-28T17:35:41;101956.27;;;-1.70;61.03
44453;BME280;30155;52.164;21.236;2023-02-28T17:40:34;101960.03;;;-1.75;61.26
44453;BME280;30155;52.164;21.236;2023-02-28T17:45:27;101952.35;;;-1.84;61.51
44453;BME280;30155;52.164;21.236;2023-02-28T17:50:21;101945.27;;;-1.91;61.84
44453;BME280;30155;52.164;21.236;2023-02-28T17:55:14;101948.19;;;-1.97;61.87
44453;BME280;30155;52.164;21.236;2023-02-28T18:00:08;101945.92;;;-2.05;62.06
44453;BME280;30155;52.164;21.236;2023-02-28T18:05:09;101940.77;;;-2.10;62.37
44453;BME280;30155;52.164;21.236;2023-02-28T18:10:02;101940.48;;;-2.13;62.72
44453;BME280;30155;52.164;21.236;2023-02-28T18:14:55;101933.52;;;-2.17;62.91
44453;BME280;30155;52.164;21.236;2023-02-28T18:19:48;101924.77;;;-2.23;63.09
44453;BME280;30155;52.164;21.236;2023-02-28T18:24:41;101917.98;;;-2.27;63.52
44453;BME280;30155;52.164;21.236;2023-02-28T18:29:35;101917.05;;;-2.34;63.37
44453;BME280;30155;52.164;21.236;2023-02-28T18:34:30;101908.61;;;-2.41;63.67
44453;BME280;30155;52.164;21.236;2023-02-28T18:39:27;101899.00;;;-2.46;64.32
44453;BME280;30155;52.164;21.236;2023-02-28T18:44:22;101902.16;;;-2.47;64.11
44453;BME280;30155;52.164;21.236;2023-02-28T18:49:16;101892.67;;;-2.49;64.29
44453;BME280;30155;52.164;21.236;2023-02-28T18:54:10;101891.58;;;-2.47;64.69
44453;BME280;30155;52.164;21.236;2023-02-28T18:59:03;101894.36;;;-2.43;64.41
44453;BME280;30155;52.164;21.236;2023-02-28T19:03:56;101888.48;;;-2.42;64.79
44453;BME280;30155;52.164;21.236;2023-02-28T19:08:53;101899.16;;;-2.43;64.72
44453;BME280;30155;52.164;21.236;2023-02-28T19:13:47;101905.00;;;-2.51;64.52
44453;BME280;30155;52.164;21.236;2023-02-28T19:18:40;101903.69;;;-2.64;64.80
44453;BME280;30155;52.164;21.236;2023-02-28T19:23:33;101914.02;;;-2.74;65.34
44453;BME280;30155;52.164;21.236;2023-02-28T19:28:29;101919.27;;;-2.82;65.16
44453;BME280;30155;52.164;21.236;2023-02-28T19:33:21;101930.82;;;-2.88;65.44
44453;BME280;30155;52.164;21.236;2023-02-28T19:38:16;101933.46;;;-2.96;65.62
44453;BME280;30155;52.164;21.236;2023-02-28T19:43:09;101931.21;;;-3.02;66.28
44453;BME280;30155;52.164;21.236;2023-02-28T19:48:03;101931.14;;;-3.08;66.07
44453;BME280;30155;52.164;21.236;2023-02-28T19:52:56;101932.08;;;-3.15;65.83
44453;BME280;30155;52.164;21.236;2023-02-28T19:57:51;101946.30;;;-3.19;66.04
44453;BME280;30155;52.164;21.236;2023-02-28T20:02:43;101942.05;;;-3.24;66.28
44453;BME280;30155;52.164;21.236;2023-02-28T20:07:36;101938.31;;;-3.27;66.57
44453;BME280;30155;52.164;21.236;2023-02-28T20:12:29;101940.13;;;-3.31;66.52
44453;BME280;30155;52.164;21.236;2023-02-28T20:17:22;101945.15;;;-3.40;66.54
44453;BME280;30155;52.164;21.236;2023-02-28T20:22:15;101953.72;;;-3.51;66.77
44453;BME280;30155;52.164;21.236;2023-02-28T20:27:09;101956.59;;;-3.56;67.28
44453;BME280;30155;52.164;21.236;2023-02-28T20:32:01;101953.84;;;-3.64;67.15
44453;BME280;30155;52.164;21.236;2023-02-28T20:36:54;101939.88;;;-3.72;67.26
44453;BME280;30155;52.164;21.236;2023-02-28T20:41:49;101925.56;;;-3.76;67.35
44453;BME280;30155;52.164;21.236;2023-02-28T20:46:42;101909.88;;;-3.77;67.86
44453;BME280;30155;52.164;21.236;2023-02-28T20:51:35;101918.27;;;-3.82;67.27
44453;BME280;30155;52.164;21.236;2023-02-28T20:56:30;101926.30;;;-3.81;67.54
44453;BME280;30155;52.164;21.236;2023-02-28T21:01:25;101931.75;;;-3.83;67.58
44453;BME280;30155;52.164;21.236;2023-02-28T21:06:21;101928.38;;;-3.88;67.72
44453;BME280;30155;52.164;21.236;2023-02-28T21:11:20;101915.71;;;-3.93;67.81
44453;BME280;30155;52.164;21.236;2023-02-28T21:16:16;101914.17;;;-4.00;67.91
44453;BME280;30155;52.164;21.236;2023-02-28T21:21:12;101909.95;;;-4.11;68.05
44453;BME280;30155;52.164;21.236;2023-02-28T21:26:07;101913.74;;;-4.21;67.89
44453;BME280;30155;52.164;21.236;2023-02-28T21:31:06;101918.77;;;-4.29;68.27
44453;BME280;30155;52.164;21.236;2023-02-28T21:36:22;101916.05;;;-4.38;68.11
44453;BME280;30155;52.164;21.236;2023-02-28T21:41:18;101911.94;;;-4.45;67.97
44453;BME280;30155;52.164;21.236;2023-02-28T21:46:17;101913.38;;;-4.46;68.77
44453;BME280;30155;52.164;21.236;2023-02-28T21:51:18;101914.37;;;-4.48;68.66
44453;BME280;30155;52.164;21.236;2023-02-28T21:56:15;101914.35;;;-4.50;68.36
44453;BME280;30155;52.164;21.236;2023-02-28T22:01:14;101923.38;;;-4.48;68.82
44453;BME280;30155;52.164;21.236;2023-02-28T22:06:13;101918.48;;;-4.48;68.95
44453;BME280;30155;52.164;21.236;2023-02-28T22:11:07;101916.55;;;-4.52;68.63
44453;BME280;30155;52.164;21.236;2023-02-28T22:16:01;101915.63;;;-4.56;69.01
44453;BME280;30155;52.164;21.236;2023-02-28T22:20:55;101907.36;;;-4.60;69.43
44453;BME280;30155;52.164;21.236;2023-02-28T22:25:48;101906.64;;;-4.60;69.37
44453;BME280;30155;52.164;21.236;2023-02-28T22:30:40;101905.45;;;-4.66;69.34
44453;BME280;30155;52.164;21.236;2023-02-28T22:35:33;101903.15;;;-4.73;69.42
44453;BME280;30155;52.164;21.236;2023-02-28T22:40:26;101897.27;;;-4.75;69.71
44453;BME280;30155;52.164;21.236;2023-02-28T22:45:18;101891.09;;;-4.74;69.98
44453;BME280;30155;52.164;21.236;2023-02-28T22:50:11;101893.84;;;-4.72;69.85
44453;BME280;30155;52.164;21.236;2023-02-28T22:55:05;101889.02;;;-4.71;70.10
44453;BME280;30155;52.164;21.236;2023-02-28T22:59:58;101886.60;;;-4.66;70.67
44453;BME280;30155;52.164;21.236;2023-02-28T23:04:50;101898.47;;;-4.64;70.31
44453;BME280;30155;52.164;21.236;2023-02-28T23:09:43;101909.66;;;-4.67;69.91
44453;BME280;30155;52.164;21.236;2023-02-28T23:14:36;101918.20;;;-4.72;70.38
44453;BME280;30155;52.164;21.236;2023-02-28T23:19:29;101921.05;;;-4.75;69.95
44453;BME280;30155;52.164;21.236;2023-02-28T23:24:24;101924.52;;;-4.78;69.95
44453;BME280;30155;52.164;21.236;2023-02-28T23:29:19;101909.63;;;-4.78;70.51
44453;BME280;30155;52.164;21.236;2023-02-28T23:34:13;101898.82;;;-4.81;70.57
44453;BME280;30155;52.164;21.236;2023-02-28T23:39:07;101894.13;;;-4.83;70.84
44453;BME280;30155;52.164;21.236;2023-02-28T23:44:00;101900.77;;;-4.88;70.75
44453;BME280;30155;52.164;21.236;2023-02-28T23:48:53;101903.09;;;-4.91;70.92
44453;BME280;30155;52.164;21.236;2023-02-28T23:53:48;101910.23;;;-4.89;70.76
44453;BME280;30155;52.164;21.236;2023-02-28T23:58:42;101911.09;;;-4.89;70.77
